PWSweather.com
Personal Weather Stations
Station Observations
KOHCLEVE171
Cleveland, OH

Cleveland, OH

Lat: 41.48646164, Lon: -81.46408081

Elevation: 1059

Station Type:

High Low Average
Temperature 45.9°F7.7°C 30.2°F-1.0°C 35.2°F1.8°C
Dew Point 34.3°F1.3°C 27.1°F-2.7°C 29.8°F-1.2°C
Winds 7.2 mph 11.6 kmh Calm Calm 2.0 mph SSE3.2 kmh SSE
Wind Gusts 12.3 mph19.8 kmh -- 4.0 mph6.4 kmh
Humidity 90% 62% 81%
Pressure 29.99 in1015.6 mb 29.62 in1003.0 mb -
Precipitation 0.00 in0.0 mm - -
Hour Temp Dew Point Humidity Winds Wind Gusts Pressure Precip Precip Rate Daily Precip Total
12:04 AM 31.3°F-0.4°C 27.9°F-2.3°C 87% 2.5 mph S4.0 kmh S 3.4 mph5.5 kmh 30.00 in1015.9 mb 0.00 in0.0 mm 0.00 in0.0 mm 0.01 in0.3 mm
12:09 AM 31.3°F-0.4°C 27.9°F-2.3°C 87% 3.6 mph S5.8 kmh S 4.9 mph7.9 kmh 30.00 in1015.9 mb 0.00 in0.0 mm 0.00 in0.0 mm 0.01 in0.3 mm
12:14 AM 31.5°F-0.3°C 28.0°F-2.2°C 87% 3.1 mph SW5.0 kmh SW 4.5 mph7.2 kmh 30.00 in1015.9 mb 0.00 in0.0 mm 0.00 in0.0 mm 0.01 in0.3 mm
12:19 AM 31.5°F-0.3°C 28.0°F-2.2°C 87% 3.6 mph SSW5.8 kmh SSW 4.9 mph7.9 kmh 30.00 in1015.9 mb 0.00 in0.0 mm 0.00 in0.0 mm 0.01 in0.3 mm
12:24 AM 31.3°F-0.4°C 27.9°F-2.3°C 87% 3.4 mph SSW5.5 kmh SSW 6.0 mph9.7 kmh 30.00 in1015.9 mb 0.00 in0.0 mm 0.00 in0.0 mm 0.01 in0.3 mm
12:29 AM 31.3°F-0.4°C 27.9°F-2.3°C 87% 4.0 mph S6.4 kmh S 5.8 mph9.3 kmh 30.00 in1015.9 mb 0.00 in0.0 mm 0.00 in0.0 mm 0.01 in0.3 mm
12:34 AM 31.3°F-0.4°C 27.9°F-2.3°C 87% 3.6 mph SSW5.8 kmh SSW 4.9 mph7.9 kmh 30.00 in1015.9 mb 0.00 in0.0 mm 0.00 in0.0 mm 0.01 in0.3 mm
12:39 AM 31.3°F-0.4°C 27.9°F-2.3°C 87% 2.7 mph SSE4.3 kmh SSE 3.6 mph5.8 kmh 30.00 in1015.9 mb 0.00 in0.0 mm 0.00 in0.0 mm 0.01 in0.3 mm
12:44 AM 31.1°F-0.5°C 27.7°F-2.4°C 87% 2.9 mph S4.7 kmh S 4.5 mph7.2 kmh 30.00 in1015.9 mb 0.00 in0.0 mm 0.00 in0.0 mm 0.01 in0.3 mm
12:49 AM 31.3°F-0.4°C 28.4°F-2.0°C 89% 1.3 mph SE2.1 kmh SE 1.8 mph2.9 kmh 30.00 in1015.9 mb 0.00 in0.0 mm 0.00 in0.0 mm 0.01 in0.3 mm
12:54 AM 30.9°F-0.6°C 27.5°F-2.5°C 87% 1.8 mph S2.9 kmh S 3.1 mph5.0 kmh 29.99 in1015.6 mb 0.00 in0.0 mm 0.00 in0.0 mm 0.01 in0.3 mm
01:04 AM 30.9°F-0.6°C 28.0°F-2.2°C 89% 1.1 mph SE1.8 kmh SE 2.2 mph3.5 kmh 29.99 in1015.6 mb 0.00 in0.0 mm 0.00 in0.0 mm 0.00 in0.0 mm
01:09 AM 30.9°F-0.6°C 28.0°F-2.2°C 89% 1.6 mph SE2.6 kmh SE 3.1 mph5.0 kmh 29.99 in1015.6 mb 0.00 in0.0 mm 0.00 in0.0 mm 0.00 in0.0 mm
01:14 AM 30.7°F-0.7°C 27.9°F-2.3°C 89% 1.1 mph S1.8 kmh S 2.0 mph3.2 kmh 29.99 in1015.6 mb 0.00 in0.0 mm 0.00 in0.0 mm 0.00 in0.0 mm
01:19 AM 30.7°F-0.7°C 27.9°F-2.3°C 89% 2.5 mph S4.0 kmh S 3.6 mph5.8 kmh 29.99 in1015.6 mb 0.00 in0.0 mm 0.00 in0.0 mm 0.00 in0.0 mm
01:24 AM 30.7°F-0.7°C 27.9°F-2.3°C 89% 1.8 mph S2.9 kmh S 2.7 mph4.3 kmh 29.99 in1015.6 mb 0.00 in0.0 mm 0.00 in0.0 mm 0.00 in0.0 mm
01:29 AM 30.7°F-0.7°C 27.9°F-2.3°C 89% 2.9 mph S4.7 kmh S 4.0 mph6.4 kmh 29.99 in1015.6 mb 0.00 in0.0 mm 0.00 in0.0 mm 0.00 in0.0 mm
01:34 AM 30.7°F-0.7°C 27.9°F-2.3°C 89% 1.8 mph SSW2.9 kmh SSW 2.7 mph4.3 kmh 29.99 in1015.6 mb 0.00 in0.0 mm 0.00 in0.0 mm 0.00 in0.0 mm
01:39 AM 30.7°F-0.7°C 27.9°F-2.3°C 89% 1.6 mph S2.6 kmh S 2.7 mph4.3 kmh 29.99 in1015.6 mb 0.00 in0.0 mm 0.00 in0.0 mm 0.00 in0.0 mm
01:44 AM 30.7°F-0.7°C 27.9°F-2.3°C 89% 1.3 mph S2.1 kmh S 2.0 mph3.2 kmh 29.99 in1015.6 mb 0.00 in0.0 mm 0.00 in0.0 mm 0.00 in0.0 mm
01:49 AM 30.7°F-0.7°C 27.9°F-2.3°C 89% 4.5 mph S7.2 kmh S 7.6 mph12.2 kmh 29.99 in1015.6 mb 0.00 in0.0 mm 0.00 in0.0 mm 0.00 in0.0 mm
01:54 AM 30.6°F-0.8°C 27.7°F-2.4°C 89% 2.9 mph S4.7 kmh S 3.8 mph6.1 kmh 29.99 in1015.6 mb 0.00 in0.0 mm 0.00 in0.0 mm 0.00 in0.0 mm
01:59 AM 30.6°F-0.8°C 27.7°F-2.4°C 89% 2.0 mph SSE3.2 kmh SSE 2.7 mph4.3 kmh 29.99 in1015.6 mb 0.00 in0.0 mm 0.00 in0.0 mm 0.00 in0.0 mm
02:04 AM 30.4°F-0.9°C 27.5°F-2.5°C 89% 1.8 mph SE2.9 kmh SE 2.2 mph3.5 kmh 29.99 in1015.6 mb 0.00 in0.0 mm 0.00 in0.0 mm 0.00 in0.0 mm
02:09 AM 30.4°F-0.9°C 27.5°F-2.5°C 89% 1.8 mph SE2.9 kmh SE 2.5 mph4.0 kmh 29.99 in1015.6 mb 0.00 in0.0 mm 0.00 in0.0 mm 0.00 in0.0 mm
02:14 AM 30.4°F-0.9°C 27.9°F-2.3°C 90% 1.8 mph S2.9 kmh S 2.5 mph4.0 kmh 29.99 in1015.6 mb 0.00 in0.0 mm 0.00 in0.0 mm 0.00 in0.0 mm
02:19 AM 30.6°F-0.8°C 27.7°F-2.4°C 89% 2.0 mph SSE3.2 kmh SSE 2.5 mph4.0 kmh 29.99 in1015.6 mb 0.00 in0.0 mm 0.00 in0.0 mm 0.00 in0.0 mm
02:24 AM 30.6°F-0.8°C 28.0°F-2.2°C 90% 2.2 mph S3.5 kmh S 3.1 mph5.0 kmh 29.99 in1015.6 mb 0.00 in0.0 mm 0.00 in0.0 mm 0.00 in0.0 mm
02:29 AM 30.4°F-0.9°C 27.5°F-2.5°C 89% 2.0 mph SE3.2 kmh SE 3.4 mph5.5 kmh 29.99 in1015.6 mb 0.00 in0.0 mm 0.00 in0.0 mm 0.00 in0.0 mm
02:34 AM 30.2°F-1.0°C 27.3°F-2.6°C 89% 2.0 mph SSE3.2 kmh SSE 2.7 mph4.3 kmh 29.99 in1015.6 mb 0.00 in0.0 mm 0.00 in0.0 mm 0.00 in0.0 mm
02:39 AM 30.4°F-0.9°C 27.5°F-2.5°C 89% 1.8 mph SE2.9 kmh SE 2.5 mph4.0 kmh 29.99 in1015.6 mb 0.00 in0.0 mm 0.00 in0.0 mm 0.00 in0.0 mm
02:44 AM 30.4°F-0.9°C 27.9°F-2.3°C 90% 2.5 mph SSE4.0 kmh SSE 3.4 mph5.5 kmh 29.98 in1015.2 mb 0.00 in0.0 mm 0.00 in0.0 mm 0.00 in0.0 mm
02:49 AM 30.4°F-0.9°C 27.9°F-2.3°C 90% 2.2 mph SSW3.5 kmh SSW 3.6 mph5.8 kmh 29.99 in1015.6 mb 0.00 in0.0 mm 0.00 in0.0 mm 0.00 in0.0 mm
02:54 AM 30.4°F-0.9°C 27.5°F-2.5°C 89% 3.8 mph SSE6.1 kmh SSE 5.1 mph8.2 kmh 29.98 in1015.2 mb 0.00 in0.0 mm 0.00 in0.0 mm 0.00 in0.0 mm
02:59 AM 30.4°F-0.9°C 27.5°F-2.5°C 89% 2.5 mph SSE4.0 kmh SSE 4.0 mph6.4 kmh 29.98 in1015.2 mb 0.00 in0.0 mm 0.00 in0.0 mm 0.00 in0.0 mm
03:04 AM 30.2°F-1.0°C 27.3°F-2.6°C 89% 2.0 mph SSE3.2 kmh SSE 3.1 mph5.0 kmh 29.98 in1015.2 mb 0.00 in0.0 mm 0.00 in0.0 mm 0.00 in0.0 mm
03:09 AM 30.4°F-0.9°C 27.5°F-2.5°C 89% 2.5 mph S4.0 kmh S 3.4 mph5.5 kmh 29.98 in1015.2 mb 0.00 in0.0 mm 0.00 in0.0 mm 0.00 in0.0 mm
03:14 AM 30.4°F-0.9°C 27.5°F-2.5°C 89% 3.4 mph SSE5.5 kmh SSE 4.9 mph7.9 kmh 29.98 in1015.2 mb 0.00 in0.0 mm 0.00 in0.0 mm 0.00 in0.0 mm
03:19 AM 30.4°F-0.9°C 27.5°F-2.5°C 89% 3.1 mph SSE5.0 kmh SSE 5.6 mph9.0 kmh 29.98 in1015.2 mb 0.00 in0.0 mm 0.00 in0.0 mm 0.00 in0.0 mm
03:24 AM 30.4°F-0.9°C 27.5°F-2.5°C 89% 2.9 mph SSE4.7 kmh SSE 4.5 mph7.2 kmh 29.98 in1015.2 mb 0.00 in0.0 mm 0.00 in0.0 mm 0.00 in0.0 mm
03:29 AM 30.6°F-0.8°C 27.7°F-2.4°C 89% 3.8 mph SW6.1 kmh SW 7.6 mph12.2 kmh 29.98 in1015.2 mb 0.00 in0.0 mm 0.00 in0.0 mm 0.00 in0.0 mm
03:34 AM 30.6°F-0.8°C 27.7°F-2.4°C 89% 2.7 mph S4.3 kmh S 3.6 mph5.8 kmh 29.98 in1015.2 mb 0.00 in0.0 mm 0.00 in0.0 mm 0.00 in0.0 mm
03:39 AM 30.6°F-0.8°C 27.7°F-2.4°C 89% 3.1 mph SSW5.0 kmh SSW 5.4 mph8.7 kmh 29.97 in1014.9 mb 0.00 in0.0 mm 0.00 in0.0 mm 0.00 in0.0 mm
03:44 AM 30.6°F-0.8°C 27.7°F-2.4°C 89% 1.8 mph S2.9 kmh S 2.9 mph4.7 kmh 29.97 in1014.9 mb 0.00 in0.0 mm 0.00 in0.0 mm 0.00 in0.0 mm
03:49 AM 30.6°F-0.8°C 27.7°F-2.4°C 89% 4.9 mph S7.9 kmh S 8.5 mph13.7 kmh 29.97 in1014.9 mb 0.00 in0.0 mm 0.00 in0.0 mm 0.00 in0.0 mm
03:54 AM 30.7°F-0.7°C 27.9°F-2.3°C 89% 2.7 mph SSW4.3 kmh SSW 3.8 mph6.1 kmh 29.97 in1014.9 mb 0.00 in0.0 mm 0.00 in0.0 mm 0.00 in0.0 mm
03:59 AM 30.7°F-0.7°C 27.9°F-2.3°C 89% 3.8 mph S6.1 kmh S 5.8 mph9.3 kmh 29.97 in1014.9 mb 0.00 in0.0 mm 0.00 in0.0 mm 0.00 in0.0 mm
04:04 AM 30.7°F-0.7°C 27.3°F-2.6°C 87% 2.9 mph S4.7 kmh S 4.7 mph7.6 kmh 29.97 in1014.9 mb 0.00 in0.0 mm 0.00 in0.0 mm 0.00 in0.0 mm
04:09 AM 30.7°F-0.7°C 27.9°F-2.3°C 89% 4.3 mph S6.9 kmh S 6.0 mph9.7 kmh 29.97 in1014.9 mb 0.00 in0.0 mm 0.00 in0.0 mm 0.00 in0.0 mm
04:14 AM 30.7°F-0.7°C 27.3°F-2.6°C 87% 3.8 mph SW6.1 kmh SW 9.6 mph15.4 kmh 29.97 in1014.9 mb 0.00 in0.0 mm 0.00 in0.0 mm 0.00 in0.0 mm
04:19 AM 30.7°F-0.7°C 27.3°F-2.6°C 87% 3.6 mph S5.8 kmh S 4.7 mph7.6 kmh 29.97 in1014.9 mb 0.00 in0.0 mm 0.00 in0.0 mm 0.00 in0.0 mm
04:24 AM 30.7°F-0.7°C 27.3°F-2.6°C 87% 3.8 mph SSE6.1 kmh SSE 5.1 mph8.2 kmh 29.97 in1014.9 mb 0.00 in0.0 mm 0.00 in0.0 mm 0.00 in0.0 mm
04:29 AM 30.7°F-0.7°C 27.3°F-2.6°C 87% 4.0 mph SSW6.4 kmh SSW 5.6 mph9.0 kmh 29.97 in1014.9 mb 0.00 in0.0 mm 0.00 in0.0 mm 0.00 in0.0 mm
04:34 AM 30.7°F-0.7°C 27.3°F-2.6°C 87% 2.9 mph SSW4.7 kmh SSW 3.8 mph6.1 kmh 29.97 in1014.9 mb 0.00 in0.0 mm 0.00 in0.0 mm 0.00 in0.0 mm
04:39 AM 30.7°F-0.7°C 27.3°F-2.6°C 87% 4.0 mph S6.4 kmh S 7.4 mph11.9 kmh 29.97 in1014.9 mb 0.00 in0.0 mm 0.00 in0.0 mm 0.00 in0.0 mm
04:44 AM 30.9°F-0.6°C 27.5°F-2.5°C 87% 2.2 mph SSW3.5 kmh SSW 3.4 mph5.5 kmh 29.97 in1014.9 mb 0.00 in0.0 mm 0.00 in0.0 mm 0.00 in0.0 mm
04:49 AM 30.7°F-0.7°C 27.3°F-2.6°C 87% 3.1 mph SSW5.0 kmh SSW 4.5 mph7.2 kmh 29.97 in1014.9 mb 0.00 in0.0 mm 0.00 in0.0 mm 0.00 in0.0 mm
04:54 AM 30.7°F-0.7°C 27.3°F-2.6°C 87% 4.3 mph S6.9 kmh S 7.8 mph12.6 kmh 29.96 in1014.6 mb 0.00 in0.0 mm 0.00 in0.0 mm 0.00 in0.0 mm
04:59 AM 30.7°F-0.7°C 27.3°F-2.6°C 87% 3.1 mph SSW5.0 kmh SSW 4.3 mph6.9 kmh 29.96 in1014.6 mb 0.00 in0.0 mm 0.00 in0.0 mm 0.00 in0.0 mm
05:04 AM 30.7°F-0.7°C 27.3°F-2.6°C 87% 3.4 mph SSE5.5 kmh SSE 5.6 mph9.0 kmh 29.96 in1014.6 mb 0.00 in0.0 mm 0.00 in0.0 mm 0.00 in0.0 mm
05:09 AM 30.7°F-0.7°C 27.3°F-2.6°C 87% 2.9 mph S4.7 kmh S 4.0 mph6.4 kmh 29.96 in1014.6 mb 0.00 in0.0 mm 0.00 in0.0 mm 0.00 in0.0 mm
05:14 AM 30.7°F-0.7°C 27.3°F-2.6°C 87% 2.7 mph S4.3 kmh S 4.3 mph6.9 kmh 29.96 in1014.6 mb 0.00 in0.0 mm 0.00 in0.0 mm 0.00 in0.0 mm
05:19 AM 30.7°F-0.7°C 27.3°F-2.6°C 87% 2.2 mph SSE3.5 kmh SSE 3.4 mph5.5 kmh 29.95 in1014.2 mb 0.00 in0.0 mm 0.00 in0.0 mm 0.00 in0.0 mm
05:24 AM 30.7°F-0.7°C 27.3°F-2.6°C 87% 4.3 mph S6.9 kmh S 6.0 mph9.7 kmh 29.95 in1014.2 mb 0.00 in0.0 mm 0.00 in0.0 mm 0.00 in0.0 mm
05:29 AM 30.7°F-0.7°C 27.3°F-2.6°C 87% 2.9 mph S4.7 kmh S 3.8 mph6.1 kmh 29.94 in1013.9 mb 0.00 in0.0 mm 0.00 in0.0 mm 0.00 in0.0 mm
05:34 AM 30.7°F-0.7°C 27.3°F-2.6°C 87% 3.4 mph S5.5 kmh S 5.8 mph9.3 kmh 29.94 in1013.9 mb 0.00 in0.0 mm 0.00 in0.0 mm 0.00 in0.0 mm
05:39 AM 30.7°F-0.7°C 27.3°F-2.6°C 87% 2.7 mph S4.3 kmh S 4.3 mph6.9 kmh 29.94 in1013.9 mb 0.00 in0.0 mm 0.00 in0.0 mm 0.00 in0.0 mm
05:44 AM 30.7°F-0.7°C 27.3°F-2.6°C 87% 2.9 mph S4.7 kmh S 4.7 mph7.6 kmh 29.94 in1013.9 mb 0.00 in0.0 mm 0.00 in0.0 mm 0.00 in0.0 mm
05:49 AM 30.9°F-0.6°C 27.5°F-2.5°C 87% 3.1 mph S5.0 kmh S 4.3 mph6.9 kmh 29.94 in1013.9 mb 0.00 in0.0 mm 0.00 in0.0 mm 0.00 in0.0 mm
05:54 AM 30.9°F-0.6°C 27.1°F-2.7°C 86% 2.2 mph S3.5 kmh S 3.4 mph5.5 kmh 29.93 in1013.5 mb 0.00 in0.0 mm 0.00 in0.0 mm 0.00 in0.0 mm
05:59 AM 30.9°F-0.6°C 27.5°F-2.5°C 87% 3.6 mph SSW5.8 kmh SSW 5.1 mph8.2 kmh 29.93 in1013.5 mb 0.00 in0.0 mm 0.00 in0.0 mm 0.00 in0.0 mm
06:04 AM 30.9°F-0.6°C 27.1°F-2.7°C 86% 2.5 mph S4.0 kmh S 3.8 mph6.1 kmh 29.93 in1013.5 mb 0.00 in0.0 mm 0.00 in0.0 mm 0.00 in0.0 mm
06:09 AM 31.1°F-0.5°C 27.3°F-2.6°C 86% 2.9 mph SSE4.7 kmh SSE 4.9 mph7.9 kmh 29.93 in1013.5 mb 0.00 in0.0 mm 0.00 in0.0 mm 0.00 in0.0 mm
06:14 AM 31.1°F-0.5°C 27.3°F-2.6°C 86% 3.1 mph S5.0 kmh S 4.9 mph7.9 kmh 29.93 in1013.5 mb 0.00 in0.0 mm 0.00 in0.0 mm 0.00 in0.0 mm
06:19 AM 31.1°F-0.5°C 27.3°F-2.6°C 86% 3.8 mph SSW6.1 kmh SSW 4.9 mph7.9 kmh 29.93 in1013.5 mb 0.00 in0.0 mm 0.00 in0.0 mm 0.00 in0.0 mm
06:24 AM 31.1°F-0.5°C 27.3°F-2.6°C 86% 5.6 mph S9.0 kmh S 7.6 mph12.2 kmh 29.92 in1013.2 mb 0.00 in0.0 mm 0.00 in0.0 mm 0.00 in0.0 mm
06:29 AM 31.3°F-0.4°C 27.5°F-2.5°C 86% 3.1 mph SSW5.0 kmh SSW 4.5 mph7.2 kmh 29.92 in1013.2 mb 0.00 in0.0 mm 0.00 in0.0 mm 0.00 in0.0 mm
06:34 AM 31.3°F-0.4°C 27.5°F-2.5°C 86% 3.1 mph S5.0 kmh S 4.7 mph7.6 kmh 29.92 in1013.2 mb 0.00 in0.0 mm 0.00 in0.0 mm 0.00 in0.0 mm
06:39 AM 31.5°F-0.3°C 27.7°F-2.4°C 86% 4.9 mph SSW7.9 kmh SSW 7.2 mph11.6 kmh 29.93 in1013.5 mb 0.00 in0.0 mm 0.00 in0.0 mm 0.00 in0.0 mm
06:44 AM 31.5°F-0.3°C 27.7°F-2.4°C 86% 3.4 mph S5.5 kmh S 5.4 mph8.7 kmh 29.93 in1013.5 mb 0.00 in0.0 mm 0.00 in0.0 mm 0.00 in0.0 mm
06:49 AM 31.3°F-0.4°C 27.5°F-2.5°C 86% 2.7 mph SSE4.3 kmh SSE 5.8 mph9.3 kmh 29.93 in1013.5 mb 0.00 in0.0 mm 0.00 in0.0 mm 0.00 in0.0 mm
06:54 AM 31.5°F-0.3°C 27.7°F-2.4°C 86% 3.4 mph S5.5 kmh S 6.5 mph10.5 kmh 29.93 in1013.5 mb 0.00 in0.0 mm 0.00 in0.0 mm 0.00 in0.0 mm
06:59 AM 31.5°F-0.3°C 27.7°F-2.4°C 86% 2.0 mph SSW3.2 kmh SSW 3.1 mph5.0 kmh 29.93 in1013.5 mb 0.00 in0.0 mm 0.00 in0.0 mm 0.00 in0.0 mm
07:04 AM 31.5°F-0.3°C 27.7°F-2.4°C 86% 1.3 mph SE2.1 kmh SE 2.0 mph3.2 kmh 29.93 in1013.5 mb 0.00 in0.0 mm 0.00 in0.0 mm 0.00 in0.0 mm
07:09 AM 31.3°F-0.4°C 27.5°F-2.5°C 86% 2.7 mph SSW4.3 kmh SSW 4.0 mph6.4 kmh 29.93 in1013.5 mb 0.00 in0.0 mm 0.00 in0.0 mm 0.00 in0.0 mm
07:14 AM 31.3°F-0.4°C 27.5°F-2.5°C 86% 2.7 mph S4.3 kmh S 4.7 mph7.6 kmh 29.93 in1013.5 mb 0.00 in0.0 mm 0.00 in0.0 mm 0.00 in0.0 mm
07:19 AM 31.3°F-0.4°C 27.9°F-2.3°C 87% 3.6 mph SE5.8 kmh SE 4.7 mph7.6 kmh 29.93 in1013.5 mb 0.00 in0.0 mm 0.00 in0.0 mm 0.00 in0.0 mm
07:24 AM 31.3°F-0.4°C 27.9°F-2.3°C 87% 1.8 mph S2.9 kmh S 3.6 mph5.8 kmh 29.94 in1013.9 mb 0.00 in0.0 mm 0.00 in0.0 mm 0.00 in0.0 mm
07:29 AM 31.3°F-0.4°C 27.9°F-2.3°C 87% 2.0 mph SSE3.2 kmh SSE 2.9 mph4.7 kmh 29.94 in1013.9 mb 0.00 in0.0 mm 0.00 in0.0 mm 0.00 in0.0 mm
07:34 AM 31.3°F-0.4°C 27.9°F-2.3°C 87% 2.2 mph S3.5 kmh S 3.1 mph5.0 kmh 29.95 in1014.2 mb 0.00 in0.0 mm 0.00 in0.0 mm 0.00 in0.0 mm
07:39 AM 31.3°F-0.4°C 27.9°F-2.3°C 87% 2.2 mph SE3.5 kmh SE 3.4 mph5.5 kmh 29.94 in1013.9 mb 0.00 in0.0 mm 0.00 in0.0 mm 0.00 in0.0 mm
07:44 AM 31.3°F-0.4°C 27.9°F-2.3°C 87% 3.6 mph S5.8 kmh S 6.7 mph10.8 kmh 29.94 in1013.9 mb 0.00 in0.0 mm 0.00 in0.0 mm 0.00 in0.0 mm
07:49 AM 31.3°F-0.4°C 27.9°F-2.3°C 87% 2.5 mph S4.0 kmh S 3.1 mph5.0 kmh 29.94 in1013.9 mb 0.00 in0.0 mm 0.00 in0.0 mm 0.00 in0.0 mm
07:54 AM 31.3°F-0.4°C 27.9°F-2.3°C 87% 2.7 mph SE4.3 kmh SE 4.0 mph6.4 kmh 29.94 in1013.9 mb 0.00 in0.0 mm 0.00 in0.0 mm 0.00 in0.0 mm
07:59 AM 31.3°F-0.4°C 27.9°F-2.3°C 87% 2.0 mph SSE3.2 kmh SSE 3.6 mph5.8 kmh 29.94 in1013.9 mb 0.00 in0.0 mm 0.00 in0.0 mm 0.00 in0.0 mm
08:04 AM 31.3°F-0.4°C 27.9°F-2.3°C 87% 1.6 mph SSE2.6 kmh SSE 2.7 mph4.3 kmh 29.94 in1013.9 mb 0.00 in0.0 mm 0.00 in0.0 mm 0.00 in0.0 mm
08:09 AM 31.3°F-0.4°C 27.9°F-2.3°C 87% 1.6 mph SE2.6 kmh SE 2.5 mph4.0 kmh 29.94 in1013.9 mb 0.00 in0.0 mm 0.00 in0.0 mm 0.00 in0.0 mm
08:14 AM 31.3°F-0.4°C 27.5°F-2.5°C 86% 2.9 mph S4.7 kmh S 4.3 mph6.9 kmh 29.95 in1014.2 mb 0.00 in0.0 mm 0.00 in0.0 mm 0.00 in0.0 mm
08:19 AM 31.3°F-0.4°C 27.5°F-2.5°C 86% 2.7 mph SE4.3 kmh SE 3.6 mph5.8 kmh 29.94 in1013.9 mb 0.00 in0.0 mm 0.00 in0.0 mm 0.00 in0.0 mm
08:24 AM 31.3°F-0.4°C 27.5°F-2.5°C 86% 2.2 mph SE3.5 kmh SE 3.1 mph5.0 kmh 29.93 in1013.5 mb 0.00 in0.0 mm 0.00 in0.0 mm 0.00 in0.0 mm
08:29 AM 31.5°F-0.3°C 27.7°F-2.4°C 86% 2.0 mph S3.2 kmh S 2.7 mph4.3 kmh 29.93 in1013.5 mb 0.00 in0.0 mm 0.00 in0.0 mm 0.00 in0.0 mm
08:34 AM 31.6°F-0.2°C 27.9°F-2.3°C 86% 2.2 mph SSE3.5 kmh SSE 2.9 mph4.7 kmh 29.94 in1013.9 mb 0.00 in0.0 mm 0.00 in0.0 mm 0.00 in0.0 mm
08:39 AM 31.6°F-0.2°C 27.7°F-2.4°C 85% 2.9 mph SSE4.7 kmh SSE 3.4 mph5.5 kmh 29.94 in1013.9 mb 0.00 in0.0 mm 0.00 in0.0 mm 0.00 in0.0 mm
08:44 AM 31.6°F-0.2°C 27.9°F-2.3°C 86% 2.5 mph SE4.0 kmh SE 3.1 mph5.0 kmh 29.94 in1013.9 mb 0.00 in0.0 mm 0.00 in0.0 mm 0.00 in0.0 mm
08:49 AM 31.8°F-0.1°C 28.0°F-2.2°C 86% 2.5 mph SE4.0 kmh SE 3.1 mph5.0 kmh 29.94 in1013.9 mb 0.00 in0.0 mm 0.00 in0.0 mm 0.00 in0.0 mm
08:54 AM 31.8°F-0.1°C 27.9°F-2.3°C 85% 2.5 mph SE4.0 kmh SE 3.6 mph5.8 kmh 29.94 in1013.9 mb 0.00 in0.0 mm 0.00 in0.0 mm 0.00 in0.0 mm
08:59 AM 31.6°F-0.2°C 27.9°F-2.3°C 86% 0.9 mph SE1.4 kmh SE 2.2 mph3.5 kmh 29.94 in1013.9 mb 0.00 in0.0 mm 0.00 in0.0 mm 0.00 in0.0 mm
09:04 AM 31.6°F-0.2°C 27.9°F-2.3°C 86% 2.7 mph SE4.3 kmh SE 3.4 mph5.5 kmh 29.94 in1013.9 mb 0.00 in0.0 mm 0.00 in0.0 mm 0.00 in0.0 mm
09:09 AM 31.5°F-0.3°C 27.7°F-2.4°C 86% 2.5 mph SE4.0 kmh SE 3.6 mph5.8 kmh 29.94 in1013.9 mb 0.00 in0.0 mm 0.00 in0.0 mm 0.00 in0.0 mm
09:14 AM 31.3°F-0.4°C 27.5°F-2.5°C 86% 2.2 mph SE3.5 kmh SE 2.5 mph4.0 kmh 29.94 in1013.9 mb 0.00 in0.0 mm 0.00 in0.0 mm 0.00 in0.0 mm
09:19 AM 31.5°F-0.3°C 27.7°F-2.4°C 86% 2.5 mph SE4.0 kmh SE 3.1 mph5.0 kmh 29.94 in1013.9 mb 0.00 in0.0 mm 0.00 in0.0 mm 0.00 in0.0 mm
09:24 AM 31.6°F-0.2°C 28.2°F-2.1°C 87% 2.7 mph SE4.3 kmh SE 3.6 mph5.8 kmh 29.94 in1013.9 mb 0.00 in0.0 mm 0.00 in0.0 mm 0.00 in0.0 mm
09:29 AM 31.6°F-0.2°C 28.2°F-2.1°C 87% 2.0 mph SE3.2 kmh SE 3.1 mph5.0 kmh 29.95 in1014.2 mb 0.00 in0.0 mm 0.00 in0.0 mm 0.00 in0.0 mm
09:34 AM 31.5°F-0.3°C 28.0°F-2.2°C 87% 1.6 mph SSE2.6 kmh SSE 2.0 mph3.2 kmh 29.95 in1014.2 mb 0.00 in0.0 mm 0.00 in0.0 mm 0.00 in0.0 mm
09:39 AM 31.5°F-0.3°C 28.0°F-2.2°C 87% 2.2 mph S3.5 kmh S 2.7 mph4.3 kmh 29.94 in1013.9 mb 0.00 in0.0 mm 0.00 in0.0 mm 0.00 in0.0 mm
09:44 AM 31.6°F-0.2°C 28.2°F-2.1°C 87% 2.2 mph SSE3.5 kmh SSE 2.7 mph4.3 kmh 29.94 in1013.9 mb 0.00 in0.0 mm 0.00 in0.0 mm 0.00 in0.0 mm
09:49 AM 31.6°F-0.2°C 28.2°F-2.1°C 87% 2.0 mph SSE3.2 kmh SSE 2.7 mph4.3 kmh 29.94 in1013.9 mb 0.00 in0.0 mm 0.00 in0.0 mm 0.00 in0.0 mm
09:54 AM 31.6°F-0.2°C 28.2°F-2.1°C 87% 1.8 mph SSE2.9 kmh SSE 2.5 mph4.0 kmh 29.94 in1013.9 mb 0.00 in0.0 mm 0.00 in0.0 mm 0.00 in0.0 mm
09:59 AM 31.6°F-0.2°C 28.2°F-2.1°C 87% 1.8 mph S2.9 kmh S 2.7 mph4.3 kmh 29.94 in1013.9 mb 0.00 in0.0 mm 0.00 in0.0 mm 0.00 in0.0 mm
10:04 AM 31.8°F-0.1°C 28.4°F-2.0°C 87% 2.7 mph S4.3 kmh S 3.6 mph5.8 kmh 29.94 in1013.9 mb 0.00 in0.0 mm 0.00 in0.0 mm 0.00 in0.0 mm
10:09 AM 32.0°F0.0°C 28.6°F-1.9°C 87% 3.4 mph SSE5.5 kmh SSE 4.5 mph7.2 kmh 29.93 in1013.5 mb 0.00 in0.0 mm 0.00 in0.0 mm 0.00 in0.0 mm
10:14 AM 32.2°F0.1°C 28.4°F-2.0°C 86% 2.9 mph S4.7 kmh S 3.8 mph6.1 kmh 29.93 in1013.5 mb 0.00 in0.0 mm 0.00 in0.0 mm 0.00 in0.0 mm
10:19 AM 32.5°F0.3°C 28.8°F-1.8°C 86% 3.8 mph S6.1 kmh S 6.3 mph10.1 kmh 29.93 in1013.5 mb 0.00 in0.0 mm 0.00 in0.0 mm 0.00 in0.0 mm
10:24 AM 32.7°F0.4°C 28.9°F-1.7°C 86% 2.7 mph S4.3 kmh S 4.3 mph6.9 kmh 29.93 in1013.5 mb 0.00 in0.0 mm 0.00 in0.0 mm 0.00 in0.0 mm
10:29 AM 32.7°F0.4°C 28.9°F-1.7°C 86% 2.2 mph SSW3.5 kmh SSW 3.8 mph6.1 kmh 29.93 in1013.5 mb 0.00 in0.0 mm 0.00 in0.0 mm 0.00 in0.0 mm
10:34 AM 32.7°F0.4°C 28.9°F-1.7°C 86% 2.0 mph S3.2 kmh S 2.7 mph4.3 kmh 29.93 in1013.5 mb 0.00 in0.0 mm 0.00 in0.0 mm 0.00 in0.0 mm
10:39 AM 32.7°F0.4°C 28.9°F-1.7°C 86% 2.7 mph SSE4.3 kmh SSE 3.6 mph5.8 kmh 29.93 in1013.5 mb 0.00 in0.0 mm 0.00 in0.0 mm 0.00 in0.0 mm
10:44 AM 32.9°F0.5°C 29.1°F-1.6°C 86% 2.2 mph SSE3.5 kmh SSE 2.9 mph4.7 kmh 29.92 in1013.2 mb 0.00 in0.0 mm 0.00 in0.0 mm 0.00 in0.0 mm
10:49 AM 32.9°F0.5°C 29.1°F-1.6°C 86% 2.5 mph SSE4.0 kmh SSE 3.6 mph5.8 kmh 29.93 in1013.5 mb 0.00 in0.0 mm 0.00 in0.0 mm 0.00 in0.0 mm
10:54 AM 33.1°F0.6°C 29.3°F-1.5°C 86% 2.7 mph SSE4.3 kmh SSE 3.8 mph6.1 kmh 29.92 in1013.2 mb 0.00 in0.0 mm 0.00 in0.0 mm 0.00 in0.0 mm
10:59 AM 33.1°F0.6°C 29.1°F-1.6°C 85% 2.5 mph SSE4.0 kmh SSE 2.9 mph4.7 kmh 29.93 in1013.5 mb 0.00 in0.0 mm 0.00 in0.0 mm 0.00 in0.0 mm
11:04 AM 33.1°F0.6°C 29.1°F-1.6°C 85% 2.7 mph S4.3 kmh S 4.5 mph7.2 kmh 29.93 in1013.5 mb 0.00 in0.0 mm 0.00 in0.0 mm 0.00 in0.0 mm
11:09 AM 33.3°F0.7°C 29.5°F-1.4°C 86% 2.5 mph S4.0 kmh S 3.1 mph5.0 kmh 29.92 in1013.2 mb 0.00 in0.0 mm 0.00 in0.0 mm 0.00 in0.0 mm
11:14 AM 33.4°F0.8°C 29.7°F-1.3°C 86% 2.5 mph S4.0 kmh S 3.6 mph5.8 kmh 29.92 in1013.2 mb 0.00 in0.0 mm 0.00 in0.0 mm 0.00 in0.0 mm
11:19 AM 33.6°F0.9°C 29.7°F-1.3°C 85% 3.8 mph S6.1 kmh S 6.0 mph9.7 kmh 29.92 in1013.2 mb 0.00 in0.0 mm 0.00 in0.0 mm 0.00 in0.0 mm
11:24 AM 33.8°F1.0°C 29.8°F-1.2°C 85% 3.1 mph SSE5.0 kmh SSE 4.0 mph6.4 kmh 29.92 in1013.2 mb 0.00 in0.0 mm 0.00 in0.0 mm 0.00 in0.0 mm
11:29 AM 34.0°F1.1°C 30.0°F-1.1°C 85% 2.2 mph SSE3.5 kmh SSE 3.6 mph5.8 kmh 29.91 in1012.9 mb 0.00 in0.0 mm 0.00 in0.0 mm 0.00 in0.0 mm
11:34 AM 34.0°F1.1°C 30.0°F-1.1°C 85% 2.7 mph S4.3 kmh S 3.6 mph5.8 kmh 29.91 in1012.9 mb 0.00 in0.0 mm 0.00 in0.0 mm 0.00 in0.0 mm
11:39 AM 34.3°F1.3°C 30.4°F-0.9°C 85% 1.3 mph SSW2.1 kmh SSW 2.2 mph3.5 kmh 29.91 in1012.9 mb 0.00 in0.0 mm 0.00 in0.0 mm 0.00 in0.0 mm
11:44 AM 34.5°F1.4°C 30.7°F-0.7°C 86% 2.9 mph S4.7 kmh S 3.6 mph5.8 kmh 29.90 in1012.5 mb 0.00 in0.0 mm 0.00 in0.0 mm 0.00 in0.0 mm
11:49 AM 34.5°F1.4°C 30.7°F-0.7°C 86% 3.4 mph S5.5 kmh S 4.9 mph7.9 kmh 29.90 in1012.5 mb 0.00 in0.0 mm 0.00 in0.0 mm 0.00 in0.0 mm
11:54 AM 34.7°F1.5°C 30.7°F-0.7°C 85% 3.6 mph S5.8 kmh S 4.5 mph7.2 kmh 29.90 in1012.5 mb 0.00 in0.0 mm 0.00 in0.0 mm 0.00 in0.0 mm
11:59 AM 35.1°F1.7°C 30.7°F-0.7°C 84% 5.1 mph SSW8.2 kmh SSW 8.3 mph13.4 kmh 29.90 in1012.5 mb 0.00 in0.0 mm 0.00 in0.0 mm 0.00 in0.0 mm
12:04 PM 35.4°F1.9°C 31.1°F-0.5°C 84% 5.6 mph SW9.0 kmh SW 8.3 mph13.4 kmh 29.90 in1012.5 mb 0.00 in0.0 mm 0.00 in0.0 mm 0.00 in0.0 mm
12:09 PM 35.4°F1.9°C 30.6°F-0.8°C 82% 4.7 mph SSW7.6 kmh SSW 7.6 mph12.2 kmh 29.90 in1012.5 mb 0.00 in0.0 mm 0.00 in0.0 mm 0.00 in0.0 mm
12:14 PM 35.4°F1.9°C 30.6°F-0.8°C 82% 5.1 mph SW8.2 kmh SW 9.4 mph15.1 kmh 29.89 in1012.2 mb 0.00 in0.0 mm 0.00 in0.0 mm 0.00 in0.0 mm
12:19 PM 35.4°F1.9°C 30.6°F-0.8°C 82% 5.6 mph SSW9.0 kmh SSW 7.6 mph12.2 kmh 29.89 in1012.2 mb 0.00 in0.0 mm 0.00 in0.0 mm 0.00 in0.0 mm
12:24 PM 35.6°F2.0°C 30.6°F-0.8°C 82% 4.3 mph SSW6.9 kmh SSW 6.9 mph11.1 kmh 29.88 in1011.9 mb 0.00 in0.0 mm 0.00 in0.0 mm 0.00 in0.0 mm
12:29 PM 36.0°F2.2°C 30.9°F-0.6°C 82% 3.8 mph SSW6.1 kmh SSW 6.9 mph11.1 kmh 29.88 in1011.9 mb 0.00 in0.0 mm 0.00 in0.0 mm 0.00 in0.0 mm
12:34 PM 36.1°F2.3°C 30.9°F-0.6°C 81% 2.7 mph S4.3 kmh S 4.3 mph6.9 kmh 29.88 in1011.9 mb 0.00 in0.0 mm 0.00 in0.0 mm 0.00 in0.0 mm
12:39 PM 36.3°F2.4°C 31.3°F-0.4°C 82% 3.8 mph SSW6.1 kmh SSW 5.8 mph9.3 kmh 29.88 in1011.9 mb 0.00 in0.0 mm 0.00 in0.0 mm 0.00 in0.0 mm
12:44 PM 36.9°F2.7°C 31.6°F-0.2°C 81% 3.8 mph SSW6.1 kmh SSW 5.4 mph8.7 kmh 29.88 in1011.9 mb 0.00 in0.0 mm 0.00 in0.0 mm 0.00 in0.0 mm
12:49 PM 37.0°F2.8°C 31.5°F-0.3°C 80% 3.4 mph S5.5 kmh S 5.4 mph8.7 kmh 29.87 in1011.5 mb 0.00 in0.0 mm 0.00 in0.0 mm 0.00 in0.0 mm
12:54 PM 37.0°F2.8°C 31.1°F-0.5°C 79% 4.5 mph S7.2 kmh S 9.2 mph14.8 kmh 29.86 in1011.2 mb 0.00 in0.0 mm 0.00 in0.0 mm 0.00 in0.0 mm
12:59 PM 37.4°F3.0°C 31.5°F-0.3°C 79% 4.7 mph S7.6 kmh S 7.6 mph12.2 kmh 29.85 in1010.8 mb 0.00 in0.0 mm 0.00 in0.0 mm 0.00 in0.0 mm
01:04 PM 37.6°F3.1°C 31.6°F-0.2°C 79% 4.5 mph SSW7.2 kmh SSW 7.4 mph11.9 kmh 29.85 in1010.8 mb 0.00 in0.0 mm 0.00 in0.0 mm 0.00 in0.0 mm
01:09 PM 37.6°F3.1°C 31.6°F-0.2°C 79% 5.8 mph SW9.3 kmh SW 7.8 mph12.6 kmh 29.85 in1010.8 mb 0.00 in0.0 mm 0.00 in0.0 mm 0.00 in0.0 mm
01:13 PM 37.8°F3.2°C 31.8°F-0.1°C 79% 4.0 mph S6.4 kmh S 6.5 mph10.5 kmh 29.84 in1010.5 mb 0.00 in0.0 mm 0.00 in0.0 mm 0.00 in0.0 mm
01:19 PM 38.1°F3.4°C 31.5°F-0.3°C 77% 2.0 mph SSE3.2 kmh SSE 3.6 mph5.8 kmh 29.83 in1010.2 mb 0.00 in0.0 mm 0.00 in0.0 mm 0.00 in0.0 mm
01:24 PM 38.5°F3.6°C 31.8°F-0.1°C 77% 4.5 mph SW7.2 kmh SW 5.6 mph9.0 kmh 29.83 in1010.2 mb 0.00 in0.0 mm 0.00 in0.0 mm 0.00 in0.0 mm
01:29 PM 38.8°F3.8°C 32.0°F0.0°C 76% 4.7 mph SSE7.6 kmh SSE 6.7 mph10.8 kmh 29.82 in1009.8 mb 0.00 in0.0 mm 0.00 in0.0 mm 0.00 in0.0 mm
01:34 PM 39.2°F4.0°C 32.4°F0.2°C 76% 3.6 mph SSE5.8 kmh SSE 4.9 mph7.9 kmh 29.82 in1009.8 mb 0.00 in0.0 mm 0.00 in0.0 mm 0.00 in0.0 mm
01:39 PM 39.7°F4.3°C 32.2°F0.1°C 74% 3.6 mph S5.8 kmh S 6.7 mph10.8 kmh 29.82 in1009.8 mb 0.00 in0.0 mm 0.00 in0.0 mm 0.00 in0.0 mm
01:44 PM 40.1°F4.5°C 32.5°F0.3°C 74% 5.8 mph S9.3 kmh S 7.6 mph12.2 kmh 29.82 in1009.8 mb 0.00 in0.0 mm 0.00 in0.0 mm 0.00 in0.0 mm
01:49 PM 40.5°F4.7°C 32.2°F0.1°C 72% 4.7 mph S7.6 kmh S 12.3 mph19.8 kmh 29.82 in1009.8 mb 0.00 in0.0 mm 0.00 in0.0 mm 0.00 in0.0 mm
01:54 PM 40.8°F4.9°C 32.2°F0.1°C 71% 7.2 mph SSW11.6 kmh SSW 11.0 mph17.7 kmh 29.81 in1009.5 mb 0.00 in0.0 mm 0.00 in0.0 mm 0.00 in0.0 mm
01:59 PM 41.2°F5.1°C 32.5°F0.3°C 71% 5.8 mph SSW9.3 kmh SSW 9.2 mph14.8 kmh 29.82 in1009.8 mb 0.00 in0.0 mm 0.00 in0.0 mm 0.00 in0.0 mm
02:04 PM 41.5°F5.3°C 32.2°F0.1°C 69% 6.0 mph S9.7 kmh S 10.3 mph16.6 kmh 29.81 in1009.5 mb 0.00 in0.0 mm 0.00 in0.0 mm 0.00 in0.0 mm
02:09 PM 41.7°F5.4°C 32.4°F0.2°C 69% 6.0 mph SSW9.7 kmh SSW 9.4 mph15.1 kmh 29.82 in1009.8 mb 0.00 in0.0 mm 0.00 in0.0 mm 0.00 in0.0 mm
02:14 PM 41.9°F5.5°C 32.5°F0.3°C 69% 6.0 mph SW9.7 kmh SW 10.5 mph16.9 kmh 29.81 in1009.5 mb 0.00 in0.0 mm 0.00 in0.0 mm 0.00 in0.0 mm
02:19 PM 42.1°F5.6°C 32.7°F0.4°C 69% 6.5 mph S10.5 kmh S 8.9 mph14.3 kmh 29.81 in1009.5 mb 0.00 in0.0 mm 0.00 in0.0 mm 0.00 in0.0 mm
02:24 PM 42.3°F5.7°C 32.9°F0.5°C 69% 4.9 mph SW7.9 kmh SW 7.4 mph11.9 kmh 29.81 in1009.5 mb 0.00 in0.0 mm 0.00 in0.0 mm 0.00 in0.0 mm
02:29 PM 42.6°F5.9°C 32.7°F0.4°C 68% 4.7 mph S7.6 kmh S 7.2 mph11.6 kmh 29.80 in1009.1 mb 0.00 in0.0 mm 0.00 in0.0 mm 0.00 in0.0 mm
02:34 PM 42.8°F6.0°C 32.2°F0.1°C 66% 4.5 mph S7.2 kmh S 7.8 mph12.6 kmh 29.80 in1009.1 mb 0.00 in0.0 mm 0.00 in0.0 mm 0.00 in0.0 mm
02:39 PM 43.0°F6.1°C 32.4°F0.2°C 66% 2.7 mph SSW4.3 kmh SSW 3.6 mph5.8 kmh 29.79 in1008.8 mb 0.00 in0.0 mm 0.00 in0.0 mm 0.00 in0.0 mm
02:44 PM 43.0°F6.1°C 32.4°F0.2°C 66% 3.1 mph SSE5.0 kmh SSE 5.6 mph9.0 kmh 29.79 in1008.8 mb 0.00 in0.0 mm 0.00 in0.0 mm 0.00 in0.0 mm
02:49 PM 43.3°F6.3°C 32.4°F0.2°C 65% 5.4 mph S8.7 kmh S 8.1 mph13.0 kmh 29.78 in1008.5 mb 0.00 in0.0 mm 0.00 in0.0 mm 0.00 in0.0 mm
02:54 PM 43.3°F6.3°C 32.4°F0.2°C 65% 5.4 mph SSW8.7 kmh SSW 8.1 mph13.0 kmh 29.78 in1008.5 mb 0.00 in0.0 mm 0.00 in0.0 mm 0.00 in0.0 mm
02:59 PM 43.5°F6.4°C 32.9°F0.5°C 66% 3.6 mph SSW5.8 kmh SSW 8.5 mph13.7 kmh 29.78 in1008.5 mb 0.00 in0.0 mm 0.00 in0.0 mm 0.00 in0.0 mm
03:04 PM 43.9°F6.6°C 32.9°F0.5°C 65% 3.8 mph SW6.1 kmh SW 6.5 mph10.5 kmh 29.78 in1008.5 mb 0.00 in0.0 mm 0.00 in0.0 mm 0.00 in0.0 mm
03:09 PM 44.1°F6.7°C 33.1°F0.6°C 65% 4.9 mph S7.9 kmh S 8.3 mph13.4 kmh 29.78 in1008.5 mb 0.00 in0.0 mm 0.00 in0.0 mm 0.00 in0.0 mm
03:14 PM 44.1°F6.7°C 33.1°F0.6°C 65% 3.6 mph S5.8 kmh S 5.6 mph9.0 kmh 29.77 in1008.1 mb 0.00 in0.0 mm 0.00 in0.0 mm 0.00 in0.0 mm
03:19 PM 44.2°F6.8°C 33.3°F0.7°C 65% 3.6 mph SSW5.8 kmh SSW 6.3 mph10.1 kmh 29.77 in1008.1 mb 0.00 in0.0 mm 0.00 in0.0 mm 0.00 in0.0 mm
03:24 PM 44.2°F6.8°C 33.3°F0.7°C 65% 2.0 mph S3.2 kmh S 3.4 mph5.5 kmh 29.76 in1007.8 mb 0.00 in0.0 mm 0.00 in0.0 mm 0.00 in0.0 mm
03:29 PM 44.4°F6.9°C 33.4°F0.8°C 65% 2.7 mph SW4.3 kmh SW 4.3 mph6.9 kmh 29.76 in1007.8 mb 0.00 in0.0 mm 0.00 in0.0 mm 0.00 in0.0 mm
03:34 PM 44.6°F7.0°C 33.6°F0.9°C 65% 3.6 mph S5.8 kmh S 6.3 mph10.1 kmh 29.76 in1007.8 mb 0.00 in0.0 mm 0.00 in0.0 mm 0.00 in0.0 mm
03:39 PM 44.8°F7.1°C 33.3°F0.7°C 64% 2.2 mph SSE3.5 kmh SSE 3.6 mph5.8 kmh 29.75 in1007.5 mb 0.00 in0.0 mm 0.00 in0.0 mm 0.00 in0.0 mm
03:44 PM 45.0°F7.2°C 32.7°F0.4°C 62% 1.8 mph SSE2.9 kmh SSE 2.9 mph4.7 kmh 29.74 in1007.1 mb 0.00 in0.0 mm 0.00 in0.0 mm 0.00 in0.0 mm
03:49 PM 45.0°F7.2°C 34.0°F1.1°C 65% 2.2 mph S3.5 kmh S 3.1 mph5.0 kmh 29.75 in1007.5 mb 0.00 in0.0 mm 0.00 in0.0 mm 0.00 in0.0 mm
03:54 PM 45.0°F7.2°C 34.0°F1.1°C 65% 3.1 mph SW5.0 kmh SW 5.1 mph8.2 kmh 29.75 in1007.5 mb 0.00 in0.0 mm 0.00 in0.0 mm 0.00 in0.0 mm
03:59 PM 45.1°F7.3°C 33.6°F0.9°C 64% 1.8 mph SE2.9 kmh SE 3.4 mph5.5 kmh 29.74 in1007.1 mb 0.00 in0.0 mm 0.00 in0.0 mm 0.00 in0.0 mm
04:04 PM 45.1°F7.3°C 33.6°F0.9°C 64% 2.7 mph S4.3 kmh S 4.5 mph7.2 kmh 29.74 in1007.1 mb 0.00 in0.0 mm 0.00 in0.0 mm 0.00 in0.0 mm
04:09 PM 45.1°F7.3°C 33.6°F0.9°C 64% 4.7 mph SW7.6 kmh SW 6.3 mph10.1 kmh 29.74 in1007.1 mb 0.00 in0.0 mm 0.00 in0.0 mm 0.00 in0.0 mm
04:14 PM 45.5°F7.5°C 34.0°F1.1°C 64% 2.7 mph SSE4.3 kmh SSE 3.8 mph6.1 kmh 29.74 in1007.1 mb 0.00 in0.0 mm 0.00 in0.0 mm 0.00 in0.0 mm
04:19 PM 45.5°F7.5°C 33.3°F0.7°C 62% 2.9 mph S4.7 kmh S 4.3 mph6.9 kmh 29.74 in1007.1 mb 0.00 in0.0 mm 0.00 in0.0 mm 0.00 in0.0 mm
04:24 PM 45.5°F7.5°C 33.3°F0.7°C 62% 1.8 mph SSE2.9 kmh SSE 2.7 mph4.3 kmh 29.73 in1006.8 mb 0.00 in0.0 mm 0.00 in0.0 mm 0.00 in0.0 mm
04:29 PM 45.9°F7.7°C 33.6°F0.9°C 62% 3.4 mph SSW5.5 kmh SSW 4.7 mph7.6 kmh 29.73 in1006.8 mb 0.00 in0.0 mm 0.00 in0.0 mm 0.00 in0.0 mm
04:34 PM 45.9°F7.7°C 33.6°F0.9°C 62% 2.9 mph SSE4.7 kmh SSE 4.7 mph7.6 kmh 29.73 in1006.8 mb 0.00 in0.0 mm 0.00 in0.0 mm 0.00 in0.0 mm
04:39 PM 45.9°F7.7°C 33.6°F0.9°C 62% 1.6 mph S2.6 kmh S 3.1 mph5.0 kmh 29.73 in1006.8 mb 0.00 in0.0 mm 0.00 in0.0 mm 0.00 in0.0 mm
04:44 PM 45.9°F7.7°C 34.3°F1.3°C 64% 2.7 mph SSE4.3 kmh SSE 3.6 mph5.8 kmh 29.72 in1006.4 mb 0.00 in0.0 mm 0.00 in0.0 mm 0.00 in0.0 mm
04:49 PM 45.7°F7.6°C 34.2°F1.2°C 64% 2.0 mph S3.2 kmh S 2.7 mph4.3 kmh 29.72 in1006.4 mb 0.00 in0.0 mm 0.00 in0.0 mm 0.00 in0.0 mm
04:54 PM 45.7°F7.6°C 34.2°F1.2°C 64% 2.9 mph S4.7 kmh S 3.6 mph5.8 kmh 29.72 in1006.4 mb 0.00 in0.0 mm 0.00 in0.0 mm 0.00 in0.0 mm
04:59 PM 45.9°F7.7°C 33.6°F0.9°C 62% 3.6 mph SW5.8 kmh SW 5.6 mph9.0 kmh 29.72 in1006.4 mb 0.00 in0.0 mm 0.00 in0.0 mm 0.00 in0.0 mm
05:04 PM 45.7°F7.6°C 34.2°F1.2°C 64% 1.6 mph S2.6 kmh S 2.7 mph4.3 kmh 29.72 in1006.4 mb 0.00 in0.0 mm 0.00 in0.0 mm 0.00 in0.0 mm
05:09 PM 45.5°F7.5°C 34.0°F1.1°C 64% 1.8 mph S2.9 kmh S 2.5 mph4.0 kmh 29.72 in1006.4 mb 0.00 in0.0 mm 0.00 in0.0 mm 0.00 in0.0 mm
05:14 PM 45.5°F7.5°C 34.0°F1.1°C 64% 2.0 mph S3.2 kmh S 3.4 mph5.5 kmh 29.71 in1006.1 mb 0.00 in0.0 mm 0.00 in0.0 mm 0.00 in0.0 mm
05:19 PM 45.3°F7.4°C 33.8°F1.0°C 64% 2.7 mph SW4.3 kmh SW 4.3 mph6.9 kmh 29.72 in1006.4 mb 0.00 in0.0 mm 0.00 in0.0 mm 0.00 in0.0 mm
05:24 PM 45.1°F7.3°C 33.6°F0.9°C 64% 2.7 mph SE4.3 kmh SE 3.8 mph6.1 kmh 29.71 in1006.1 mb 0.00 in0.0 mm 0.00 in0.0 mm 0.00 in0.0 mm
05:29 PM 45.1°F7.3°C 33.6°F0.9°C 64% 1.8 mph SE2.9 kmh SE 2.5 mph4.0 kmh 29.71 in1006.1 mb 0.00 in0.0 mm 0.00 in0.0 mm 0.00 in0.0 mm
05:34 PM 45.0°F7.2°C 34.0°F1.1°C 65% 2.2 mph SSE3.5 kmh SSE 3.4 mph5.5 kmh 29.71 in1006.1 mb 0.00 in0.0 mm 0.00 in0.0 mm 0.00 in0.0 mm
05:39 PM 44.8°F7.1°C 33.8°F1.0°C 65% 1.1 mph SSE1.8 kmh SSE 2.0 mph3.2 kmh 29.71 in1006.1 mb 0.00 in0.0 mm 0.00 in0.0 mm 0.00 in0.0 mm
05:44 PM 44.6°F7.0°C 33.6°F0.9°C 65% 2.9 mph SW4.7 kmh SW 4.5 mph7.2 kmh 29.71 in1006.1 mb 0.00 in0.0 mm 0.00 in0.0 mm 0.00 in0.0 mm
05:49 PM 44.2°F6.8°C 33.3°F0.7°C 65% 1.3 mph S2.1 kmh S 2.0 mph3.2 kmh 29.71 in1006.1 mb 0.00 in0.0 mm 0.00 in0.0 mm 0.00 in0.0 mm
05:54 PM 43.9°F6.6°C 33.3°F0.7°C 66% Calm Calm -- 29.70 in1005.8 mb 0.00 in0.0 mm 0.00 in0.0 mm 0.00 in0.0 mm
05:59 PM 43.7°F6.5°C 33.1°F0.6°C 66% Calm Calm -- 29.70 in1005.8 mb 0.00 in0.0 mm 0.00 in0.0 mm 0.00 in0.0 mm
06:04 PM 43.3°F6.3°C 33.4°F0.8°C 68% 0.7 mph NE1.1 kmh NE 1.3 mph2.1 kmh 29.70 in1005.8 mb 0.00 in0.0 mm 0.00 in0.0 mm 0.00 in0.0 mm
06:09 PM 42.8°F6.0°C 32.9°F0.5°C 68% 1.1 mph NNW1.8 kmh NNW 1.6 mph2.6 kmh 29.70 in1005.8 mb 0.00 in0.0 mm 0.00 in0.0 mm 0.00 in0.0 mm
06:14 PM 42.4°F5.8°C 32.9°F0.5°C 69% Calm Calm -- 29.70 in1005.8 mb 0.00 in0.0 mm 0.00 in0.0 mm 0.00 in0.0 mm
06:24 PM 42.1°F5.6°C 33.4°F0.8°C 71% 0.7 mph SSW1.1 kmh SSW 1.1 mph1.8 kmh 29.70 in1005.8 mb 0.00 in0.0 mm 0.00 in0.0 mm 0.00 in0.0 mm
06:29 PM 41.7°F5.4°C 33.1°F0.6°C 71% 1.3 mph SW2.1 kmh SW 1.8 mph2.9 kmh 29.70 in1005.8 mb 0.00 in0.0 mm 0.00 in0.0 mm 0.00 in0.0 mm
06:34 PM 41.4°F5.2°C 33.1°F0.6°C 72% 1.1 mph WSW1.8 kmh WSW 1.3 mph2.1 kmh 29.70 in1005.8 mb 0.00 in0.0 mm 0.00 in0.0 mm 0.00 in0.0 mm
06:39 PM 41.0°F5.0°C 32.7°F0.4°C 72% 1.1 mph WSW1.8 kmh WSW 1.3 mph2.1 kmh 29.70 in1005.8 mb 0.00 in0.0 mm 0.00 in0.0 mm 0.00 in0.0 mm
06:44 PM 40.5°F4.7°C 32.9°F0.5°C 74% 0.2 mph N0.3 kmh N 1.1 mph1.8 kmh 29.70 in1005.8 mb 0.00 in0.0 mm 0.00 in0.0 mm 0.00 in0.0 mm
06:49 PM 40.3°F4.6°C 32.7°F0.4°C 74% 1.1 mph N1.8 kmh N 1.3 mph2.1 kmh 29.70 in1005.8 mb 0.00 in0.0 mm 0.00 in0.0 mm 0.00 in0.0 mm
06:54 PM 39.9°F4.4°C 32.4°F0.2°C 74% Calm Calm -- 29.70 in1005.8 mb 0.00 in0.0 mm 0.00 in0.0 mm 0.00 in0.0 mm
06:59 PM 39.7°F4.3°C 32.2°F0.1°C 74% 2.0 mph SW3.2 kmh SW 2.5 mph4.0 kmh 29.70 in1005.8 mb 0.00 in0.0 mm 0.00 in0.0 mm 0.00 in0.0 mm
07:04 PM 39.6°F4.2°C 32.4°F0.2°C 75% 1.8 mph SW2.9 kmh SW 2.0 mph3.2 kmh 29.70 in1005.8 mb 0.00 in0.0 mm 0.00 in0.0 mm 0.00 in0.0 mm
07:09 PM 39.2°F4.0°C 32.0°F0.0°C 75% 0.2 mph NW0.3 kmh NW 1.1 mph1.8 kmh 29.70 in1005.8 mb 0.00 in0.0 mm 0.00 in0.0 mm 0.00 in0.0 mm
07:14 PM 38.8°F3.8°C 32.0°F0.0°C 76% 0.4 mph SW0.6 kmh SW 0.9 mph1.4 kmh 29.70 in1005.8 mb 0.00 in0.0 mm 0.00 in0.0 mm 0.00 in0.0 mm
07:19 PM 38.7°F3.7°C 31.8°F-0.1°C 76% 1.3 mph SW2.1 kmh SW 1.8 mph2.9 kmh 29.69 in1005.4 mb 0.00 in0.0 mm 0.00 in0.0 mm 0.00 in0.0 mm
07:24 PM 38.5°F3.6°C 31.6°F-0.2°C 76% 0.4 mph SW0.6 kmh SW 1.1 mph1.8 kmh 29.69 in1005.4 mb 0.00 in0.0 mm 0.00 in0.0 mm 0.00 in0.0 mm
07:29 PM 38.3°F3.5°C 31.6°F-0.2°C 77% Calm Calm -- 29.69 in1005.4 mb 0.00 in0.0 mm 0.00 in0.0 mm 0.00 in0.0 mm
07:34 PM 37.9°F3.3°C 31.5°F-0.3°C 77% Calm Calm -- 29.69 in1005.4 mb 0.00 in0.0 mm 0.00 in0.0 mm 0.00 in0.0 mm
07:39 PM 37.8°F3.2°C 31.3°F-0.4°C 77% Calm Calm -- 29.69 in1005.4 mb 0.00 in0.0 mm 0.00 in0.0 mm 0.00 in0.0 mm
07:44 PM 37.4°F3.0°C 31.5°F-0.3°C 79% Calm Calm -- 29.70 in1005.8 mb 0.00 in0.0 mm 0.00 in0.0 mm 0.00 in0.0 mm
07:49 PM 37.4°F3.0°C 31.5°F-0.3°C 79% 0.7 mph N1.1 kmh N 1.3 mph2.1 kmh 29.70 in1005.8 mb 0.00 in0.0 mm 0.00 in0.0 mm 0.00 in0.0 mm
07:54 PM 36.9°F2.7°C 30.9°F-0.6°C 79% 1.3 mph N2.1 kmh N 1.8 mph2.9 kmh 29.69 in1005.4 mb 0.00 in0.0 mm 0.00 in0.0 mm 0.00 in0.0 mm
07:59 PM 36.7°F2.6°C 30.7°F-0.7°C 79% Calm Calm -- 29.70 in1005.8 mb 0.00 in0.0 mm 0.00 in0.0 mm 0.00 in0.0 mm
08:04 PM 36.7°F2.6°C 30.7°F-0.7°C 79% 1.3 mph N2.1 kmh N 1.6 mph2.6 kmh 29.70 in1005.8 mb 0.00 in0.0 mm 0.00 in0.0 mm 0.00 in0.0 mm
08:09 PM 36.7°F2.6°C 31.1°F-0.5°C 80% Calm Calm -- 29.70 in1005.8 mb 0.00 in0.0 mm 0.00 in0.0 mm 0.00 in0.0 mm
08:14 PM 36.7°F2.6°C 31.1°F-0.5°C 80% 0.7 mph SW1.1 kmh SW 1.1 mph1.8 kmh 29.69 in1005.4 mb 0.00 in0.0 mm 0.00 in0.0 mm 0.00 in0.0 mm
08:19 PM 36.5°F2.5°C 30.9°F-0.6°C 80% 1.3 mph SW2.1 kmh SW 2.2 mph3.5 kmh 29.69 in1005.4 mb 0.00 in0.0 mm 0.00 in0.0 mm 0.00 in0.0 mm
08:24 PM 36.3°F2.4°C 30.7°F-0.7°C 80% 0.2 mph N0.3 kmh N 0.9 mph1.4 kmh 29.69 in1005.4 mb 0.00 in0.0 mm 0.00 in0.0 mm 0.00 in0.0 mm
08:29 PM 36.0°F2.2°C 30.4°F-0.9°C 80% 1.3 mph N2.1 kmh N 1.3 mph2.1 kmh 29.69 in1005.4 mb 0.00 in0.0 mm 0.00 in0.0 mm 0.00 in0.0 mm
08:34 PM 35.4°F1.9°C 30.2°F-1.0°C 81% 1.3 mph N2.1 kmh N 1.6 mph2.6 kmh 29.69 in1005.4 mb 0.00 in0.0 mm 0.00 in0.0 mm 0.00 in0.0 mm
08:39 PM 35.2°F1.8°C 30.0°F-1.1°C 81% 1.8 mph N2.9 kmh N 2.0 mph3.2 kmh 29.70 in1005.8 mb 0.00 in0.0 mm 0.00 in0.0 mm 0.00 in0.0 mm
08:44 PM 34.7°F1.5°C 29.8°F-1.2°C 82% 0.9 mph NNW1.4 kmh NNW 1.1 mph1.8 kmh 29.70 in1005.8 mb 0.00 in0.0 mm 0.00 in0.0 mm 0.00 in0.0 mm
08:49 PM 35.2°F1.8°C 30.4°F-0.9°C 82% 0.7 mph W1.1 kmh W 1.3 mph2.1 kmh 29.70 in1005.8 mb 0.00 in0.0 mm 0.00 in0.0 mm 0.00 in0.0 mm
08:54 PM 35.6°F2.0°C 30.6°F-0.8°C 82% 0.4 mph W0.6 kmh W 1.1 mph1.8 kmh 29.70 in1005.8 mb 0.00 in0.0 mm 0.00 in0.0 mm 0.00 in0.0 mm
08:59 PM 34.9°F1.6°C 29.7°F-1.3°C 81% 1.1 mph NNW1.8 kmh NNW 1.1 mph1.8 kmh 29.70 in1005.8 mb 0.00 in0.0 mm 0.00 in0.0 mm 0.00 in0.0 mm
09:04 PM 34.9°F1.6°C 30.0°F-1.1°C 82% 1.3 mph SW2.1 kmh SW 1.6 mph2.6 kmh 29.70 in1005.8 mb 0.00 in0.0 mm 0.00 in0.0 mm 0.00 in0.0 mm
09:09 PM 35.1°F1.7°C 30.2°F-1.0°C 82% 0.4 mph NNE0.6 kmh NNE 1.3 mph2.1 kmh 29.70 in1005.8 mb 0.00 in0.0 mm 0.00 in0.0 mm 0.00 in0.0 mm
09:14 PM 34.9°F1.6°C 30.0°F-1.1°C 82% 1.3 mph NE2.1 kmh NE 1.8 mph2.9 kmh 29.70 in1005.8 mb 0.00 in0.0 mm 0.00 in0.0 mm 0.00 in0.0 mm
09:19 PM 34.5°F1.4°C 29.7°F-1.3°C 82% 0.7 mph N1.1 kmh N 0.9 mph1.4 kmh 29.70 in1005.8 mb 0.00 in0.0 mm 0.00 in0.0 mm 0.00 in0.0 mm
09:24 PM 34.5°F1.4°C 29.7°F-1.3°C 82% 0.7 mph NNW1.1 kmh NNW 1.1 mph1.8 kmh 29.69 in1005.4 mb 0.00 in0.0 mm 0.00 in0.0 mm 0.00 in0.0 mm
09:29 PM 33.6°F0.9°C 29.3°F-1.5°C 84% 1.1 mph NNW1.8 kmh NNW 1.6 mph2.6 kmh 29.69 in1005.4 mb 0.00 in0.0 mm 0.00 in0.0 mm 0.00 in0.0 mm
09:34 PM 34.0°F1.1°C 29.7°F-1.3°C 84% 1.6 mph SW2.6 kmh SW 2.0 mph3.2 kmh 29.69 in1005.4 mb 0.00 in0.0 mm 0.00 in0.0 mm 0.00 in0.0 mm
09:39 PM 34.2°F1.2°C 29.8°F-1.2°C 84% 0.7 mph SW1.1 kmh SW 1.1 mph1.8 kmh 29.69 in1005.4 mb 0.00 in0.0 mm 0.00 in0.0 mm 0.00 in0.0 mm
09:44 PM 34.2°F1.2°C 29.8°F-1.2°C 84% Calm Calm -- 29.69 in1005.4 mb 0.00 in0.0 mm 0.00 in0.0 mm 0.00 in0.0 mm
09:49 PM 33.8°F1.0°C 29.5°F-1.4°C 84% 1.1 mph NE1.8 kmh NE 1.6 mph2.6 kmh 29.69 in1005.4 mb 0.00 in0.0 mm 0.00 in0.0 mm 0.00 in0.0 mm
09:54 PM 33.8°F1.0°C 29.5°F-1.4°C 84% 1.3 mph S2.1 kmh S 1.3 mph2.1 kmh 29.69 in1005.4 mb 0.00 in0.0 mm 0.00 in0.0 mm 0.00 in0.0 mm
09:59 PM 33.8°F1.0°C 29.5°F-1.4°C 84% Calm Calm -- 29.69 in1005.4 mb 0.00 in0.0 mm 0.00 in0.0 mm 0.00 in0.0 mm
10:04 PM 33.3°F0.7°C 28.9°F-1.7°C 84% 1.1 mph N1.8 kmh N 1.1 mph1.8 kmh 29.69 in1005.4 mb 0.00 in0.0 mm 0.00 in0.0 mm 0.00 in0.0 mm
10:09 PM 32.7°F0.4°C 28.8°F-1.8°C 85% 0.7 mph NNE1.1 kmh NNE 0.9 mph1.4 kmh 29.68 in1005.1 mb 0.00 in0.0 mm 0.00 in0.0 mm 0.00 in0.0 mm
10:14 PM 33.1°F0.6°C 29.1°F-1.6°C 85% 0.7 mph NNE1.1 kmh NNE 1.1 mph1.8 kmh 29.68 in1005.1 mb 0.00 in0.0 mm 0.00 in0.0 mm 0.00 in0.0 mm
10:19 PM 33.1°F0.6°C 29.3°F-1.5°C 86% 0.2 mph SW0.3 kmh SW 0.9 mph1.4 kmh 29.67 in1004.7 mb 0.00 in0.0 mm 0.00 in0.0 mm 0.00 in0.0 mm
10:24 PM 33.3°F0.7°C 29.3°F-1.5°C 85% Calm Calm -- 29.68 in1005.1 mb 0.00 in0.0 mm 0.00 in0.0 mm 0.00 in0.0 mm
10:29 PM 32.5°F0.3°C 28.6°F-1.9°C 85% Calm Calm -- 29.68 in1005.1 mb 0.00 in0.0 mm 0.00 in0.0 mm 0.00 in0.0 mm
10:34 PM 32.5°F0.3°C 28.8°F-1.8°C 86% 0.9 mph SSW1.4 kmh SSW 1.6 mph2.6 kmh 29.68 in1005.1 mb 0.00 in0.0 mm 0.00 in0.0 mm 0.00 in0.0 mm
10:39 PM 32.9°F0.5°C 29.1°F-1.6°C 86% 1.8 mph SW2.9 kmh SW 2.2 mph3.5 kmh 29.67 in1004.7 mb 0.00 in0.0 mm 0.00 in0.0 mm 0.00 in0.0 mm
10:44 PM 33.3°F0.7°C 29.5°F-1.4°C 86% Calm Calm -- 29.66 in1004.4 mb 0.00 in0.0 mm 0.00 in0.0 mm 0.00 in0.0 mm
10:49 PM 33.1°F0.6°C 29.3°F-1.5°C 86% Calm Calm -- 29.66 in1004.4 mb 0.00 in0.0 mm 0.00 in0.0 mm 0.00 in0.0 mm
10:54 PM 33.3°F0.7°C 29.5°F-1.4°C 86% 0.2 mph SE0.3 kmh SE 1.1 mph1.8 kmh 29.66 in1004.4 mb 0.00 in0.0 mm 0.00 in0.0 mm 0.00 in0.0 mm
10:59 PM 32.9°F0.5°C 29.1°F-1.6°C 86% 1.1 mph S1.8 kmh S 1.6 mph2.6 kmh 29.66 in1004.4 mb 0.00 in0.0 mm 0.00 in0.0 mm 0.00 in0.0 mm
11:04 PM 33.1°F0.6°C 29.3°F-1.5°C 86% Calm Calm -- 29.65 in1004.1 mb 0.00 in0.0 mm 0.00 in0.0 mm 0.00 in0.0 mm
11:09 PM 32.5°F0.3°C 28.8°F-1.8°C 86% 1.1 mph N1.8 kmh N 1.1 mph1.8 kmh 29.65 in1004.1 mb 0.00 in0.0 mm 0.00 in0.0 mm 0.00 in0.0 mm
11:14 PM 32.2°F0.1°C 28.8°F-1.8°C 87% Calm Calm -- 29.65 in1004.1 mb 0.00 in0.0 mm 0.00 in0.0 mm 0.00 in0.0 mm
11:19 PM 32.5°F0.3°C 29.1°F-1.6°C 87% Calm Calm -- 29.65 in1004.1 mb 0.00 in0.0 mm 0.00 in0.0 mm 0.00 in0.0 mm
11:24 PM 32.2°F0.1°C 28.8°F-1.8°C 87% 1.1 mph N1.8 kmh N 1.3 mph2.1 kmh 29.65 in1004.1 mb 0.00 in0.0 mm 0.00 in0.0 mm 0.00 in0.0 mm
11:29 PM 32.0°F0.0°C 28.6°F-1.9°C 87% 1.8 mph SSW2.9 kmh SSW 2.2 mph3.5 kmh 29.65 in1004.1 mb 0.00 in0.0 mm 0.00 in0.0 mm 0.00 in0.0 mm
11:34 PM 32.4°F0.2°C 28.9°F-1.7°C 87% 1.3 mph SSW2.1 kmh SSW 1.8 mph2.9 kmh 29.64 in1003.7 mb 0.00 in0.0 mm 0.00 in0.0 mm 0.00 in0.0 mm
11:39 PM 32.5°F0.3°C 29.1°F-1.6°C 87% 0.9 mph SW1.4 kmh SW 1.1 mph1.8 kmh 29.64 in1003.7 mb 0.00 in0.0 mm 0.00 in0.0 mm 0.00 in0.0 mm
11:44 PM 32.4°F0.2°C 28.9°F-1.7°C 87% 0.9 mph NE1.4 kmh NE 1.1 mph1.8 kmh 29.64 in1003.7 mb 0.00 in0.0 mm 0.00 in0.0 mm 0.00 in0.0 mm
11:49 PM 32.0°F0.0°C 28.6°F-1.9°C 87% Calm Calm -- 29.63 in1003.4 mb 0.00 in0.0 mm 0.00 in0.0 mm 0.00 in0.0 mm
11:54 PM 32.2°F0.1°C 28.8°F-1.8°C 87% 2.0 mph SSE3.2 kmh SSE 2.2 mph3.5 kmh 29.63 in1003.4 mb 0.00 in0.0 mm 0.00 in0.0 mm 0.00 in0.0 mm
11:59 PM 32.0°F0.0°C 29.1°F-1.6°C 89% Calm Calm -- 29.63 in1003.4 mb 0.00 in0.0 mm 0.00 in0.0 mm 0.00 in0.0 mm